sensor_id;sensor_type;location;lat;lon;timestamp;pressure;altitude;pressure_sealevel;temperature;humidity
69780;BME280;57052;55.602;38.096;2023-12-20T00:01:37;98614.19;;;5.68;80.66
69780;BME280;57052;55.602;38.096;2023-12-20T00:04:03;98609.59;;;5.69;80.55
69780;BME280;57052;55.602;38.096;2023-12-20T00:06:29;98601.56;;;5.69;80.46
69780;BME280;57052;55.602;38.096;2023-12-20T00:08:55;98614.44;;;5.72;80.44
69780;BME280;57052;55.602;38.096;2023-12-20T00:11:21;98611.75;;;5.72;80.22
69780;BME280;57052;55.602;38.096;2023-12-20T00:13:47;98605.06;;;5.69;80.30
69780;BME280;57052;55.602;38.096;2023-12-20T00:16:12;98597.28;;;5.68;80.02
69780;BME280;57052;55.602;38.096;2023-12-20T00:18:38;98604.47;;;5.77;79.75
69780;BME280;57052;55.602;38.096;2023-12-20T00:21:04;98561.19;;;5.45;79.53
69780;BME280;57052;55.602;38.096;2023-12-20T00:23:30;98595.91;;;5.75;80.29
69780;BME280;57052;55.602;38.096;2023-12-20T00:25:56;98606.13;;;5.73;79.48
69780;BME280;57052;55.602;38.096;2023-12-20T00:28:22;98605.91;;;5.60;79.77
69780;BME280;57052;55.602;38.096;2023-12-20T00:30:48;98612.28;;;5.69;79.84
69780;BME280;57052;55.602;38.096;2023-12-20T00:33:14;98616.63;;;5.65;79.61
69780;BME280;57052;55.602;38.096;2023-12-20T00:35:40;98618.50;;;5.64;79.75
69780;BME280;57052;55.602;38.096;2023-12-20T00:38:05;98618.25;;;5.61;79.21
69780;BME280;57052;55.602;38.096;2023-12-20T00:40:32;98629.00;;;5.61;79.57
69780;BME280;57052;55.602;38.096;2023-12-20T00:42:58;98590.97;;;5.39;79.43
69780;BME280;57052;55.602;38.096;2023-12-20T00:45:24;98621.22;;;5.59;79.33
69780;BME280;57052;55.602;38.096;2023-12-20T00:47:50;98574.16;;;5.28;79.73
69780;BME280;57052;55.602;38.096;2023-12-20T00:50:16;98627.41;;;5.55;79.58
69780;BME280;57052;55.602;38.096;2023-12-20T00:52:41;98616.19;;;5.48;79.12
69780;BME280;57052;55.602;38.096;2023-12-20T00:55:07;98628.19;;;5.60;79.66
69780;BME280;57052;55.602;38.096;2023-12-20T00:57:33;98627.38;;;5.60;79.34
69780;BME280;57052;55.602;38.096;2023-12-20T00:59:59;98630.59;;;5.62;79.58
69780;BME280;57052;55.602;38.096;2023-12-20T01:02:25;98620.38;;;5.64;79.20
69780;BME280;57052;55.602;38.096;2023-12-20T01:04:50;98621.50;;;5.58;79.09
69780;BME280;57052;55.602;38.096;2023-12-20T01:07:16;98620.66;;;5.62;78.98
69780;BME280;57052;55.602;38.096;2023-12-20T01:09:42;98613.69;;;5.61;79.37
69780;BME280;57052;55.602;38.096;2023-12-20T01:12:08;98612.31;;;5.64;79.34
69780;BME280;57052;55.602;38.096;2023-12-20T01:14:33;98613.94;;;5.65;79.34
69780;BME280;57052;55.602;38.096;2023-12-20T01:16:59;98605.84;;;5.70;79.23
69780;BME280;57052;55.602;38.096;2023-12-20T01:19:25;98609.34;;;5.70;79.11
69780;BME280;57052;55.602;38.096;2023-12-20T01:21:52;98605.81;;;5.75;78.82
69780;BME280;57052;55.602;38.096;2023-12-20T01:24:18;98602.06;;;5.76;79.40
69780;BME280;57052;55.602;38.096;2023-12-20T01:26:43;98599.41;;;5.76;79.15
69780;BME280;57052;55.602;38.096;2023-12-20T01:29:09;98597.22;;;5.78;79.16
69780;BME280;57052;55.602;38.096;2023-12-20T01:31:35;98596.41;;;5.77;79.05
69780;BME280;57052;55.602;38.096;2023-12-20T01:34:00;98574.72;;;5.69;78.87
69780;BME280;57052;55.602;38.096;2023-12-20T01:36:26;98580.59;;;5.76;78.55
69780;BME280;57052;55.602;38.096;2023-12-20T01:38:52;98582.50;;;5.70;79.04
69780;BME280;57052;55.602;38.096;2023-12-20T01:41:18;98586.78;;;5.71;79.28
69780;BME280;57052;55.602;38.096;2023-12-20T01:43:43;98561.09;;;5.60;78.87
69780;BME280;57052;55.602;38.096;2023-12-20T01:46:09;98583.06;;;5.67;79.03
69780;BME280;57052;55.602;38.096;2023-12-20T01:48:36;98584.69;;;5.68;79.43
69780;BME280;57052;55.602;38.096;2023-12-20T01:51:02;98583.34;;;5.66;79.74
69780;BME280;57052;55.602;38.096;2023-12-20T01:53:28;98588.16;;;5.64;79.44
69780;BME280;57052;55.602;38.096;2023-12-20T01:55:56;98558.72;;;5.49;79.54
69780;BME280;57052;55.602;38.096;2023-12-20T01:58:24;98581.47;;;5.61;79.51
69780;BME280;57052;55.602;38.096;2023-12-20T02:00:50;98573.41;;;5.61;79.35
69780;BME280;57052;55.602;38.096;2023-12-20T02:03:17;98555.97;;;5.59;79.49
69780;BME280;57052;55.602;38.096;2023-12-20T02:05:44;98558.13;;;5.62;79.49
69780;BME280;57052;55.602;38.096;2023-12-20T02:08:11;98574.19;;;5.67;79.66
69780;BME280;57052;55.602;38.096;2023-12-20T02:10:36;98576.06;;;5.66;79.59
69780;BME280;57052;55.602;38.096;2023-12-20T02:13:03;98572.03;;;5.69;79.37
69780;BME280;57052;55.602;38.096;2023-12-20T02:15:30;98547.69;;;5.60;79.39
69780;BME280;57052;55.602;38.096;2023-12-20T02:17:56;98568.31;;;5.65;79.19
69780;BME280;57052;55.602;38.096;2023-12-20T02:20:41;98561.91;;;5.61;79.70
69780;BME280;57052;55.602;38.096;2023-12-20T02:23:07;98565.38;;;5.61;79.22
69780;BME280;57052;55.602;38.096;2023-12-20T02:25:33;98571.00;;;5.65;79.79
69780;BME280;57052;55.602;38.096;2023-12-20T02:27:59;98562.97;;;5.60;79.11
69780;BME280;57052;55.602;38.096;2023-12-20T02:30:24;98561.66;;;5.57;79.86
69780;BME280;57052;55.602;38.096;2023-12-20T02:32:51;98562.72;;;5.56;79.08
69780;BME280;57052;55.602;38.096;2023-12-20T02:35:17;98566.00;;;5.48;79.33
69780;BME280;57052;55.602;38.096;2023-12-20T02:37:43;98545.41;;;5.29;79.00
69780;BME280;57052;55.602;38.096;2023-12-20T02:40:09;98549.97;;;5.38;78.43
69780;BME280;57052;55.602;38.096;2023-12-20T02:42:35;98542.97;;;5.37;78.74
69780;BME280;57052;55.602;38.096;2023-12-20T02:45:01;98530.59;;;5.41;78.70
69780;BME280;57052;55.602;38.096;2023-12-20T02:47:31;98518.03;;;5.32;78.71
69780;BME280;57052;55.602;38.096;2023-12-20T02:49:56;98546.19;;;5.39;79.38
69780;BME280;57052;55.602;38.096;2023-12-20T02:52:27;98538.44;;;5.33;78.80
69780;BME280;57052;55.602;38.096;2023-12-20T02:54:52;98547.81;;;5.35;79.37
69780;BME280;57052;55.602;38.096;2023-12-20T02:57:18;98556.06;;;5.44;78.91
69780;BME280;57052;55.602;38.096;2023-12-20T02:59:44;98559.81;;;5.48;79.09
69780;BME280;57052;55.602;38.096;2023-12-20T03:02:09;98574.84;;;5.44;78.85
69780;BME280;57052;55.602;38.096;2023-12-20T03:04:35;98562.81;;;5.36;79.14
69780;BME280;57052;55.602;38.096;2023-12-20T03:07:01;98570.28;;;5.44;79.20
69780;BME280;57052;55.602;38.096;2023-12-20T03:09:26;98556.66;;;5.41;79.09
69780;BME280;57052;55.602;38.096;2023-12-20T03:11:52;98568.41;;;5.45;79.16
69780;BME280;57052;55.602;38.096;2023-12-20T03:14:18;98564.38;;;5.47;78.56
69780;BME280;57052;55.602;38.096;2023-12-20T03:16:49;98555.31;;;5.38;79.02
69780;BME280;57052;55.602;38.096;2023-12-20T03:19:17;98554.50;;;5.43;79.06
69780;BME280;57052;55.602;38.096;2023-12-20T03:21:42;98577.50;;;5.49;79.05
69780;BME280;57052;55.602;38.096;2023-12-20T03:24:08;98579.13;;;5.50;79.05
69780;BME280;57052;55.602;38.096;2023-12-20T03:26:34;98576.72;;;5.53;78.72
69780;BME280;57052;55.602;38.096;2023-12-20T03:28:59;98569.72;;;5.52;78.77
69780;BME280;57052;55.602;38.096;2023-12-20T03:31:25;98527.22;;;5.26;78.95
69780;BME280;57052;55.602;38.096;2023-12-20T03:33:51;98557.38;;;5.51;78.70
69780;BME280;57052;55.602;38.096;2023-12-20T03:36:19;98561.69;;;5.52;78.95
69780;BME280;57052;55.602;38.096;2023-12-20T03:38:45;98551.75;;;5.53;79.19
69780;BME280;57052;55.602;38.096;2023-12-20T03:41:11;98567.84;;;5.53;78.89
69780;BME280;57052;55.602;38.096;2023-12-20T03:43:37;98567.59;;;5.49;78.84
69780;BME280;57052;55.602;38.096;2023-12-20T03:46:03;98564.34;;;5.52;78.66
69780;BME280;57052;55.602;38.096;2023-12-20T03:48:32;98564.06;;;5.54;78.77
69780;BME280;57052;55.602;38.096;2023-12-20T03:50:58;98562.22;;;5.49;79.08
69780;BME280;57052;55.602;38.096;2023-12-20T03:53:24;98557.16;;;5.48;79.23
69780;BME280;57052;55.602;38.096;2023-12-20T03:55:49;98569.72;;;5.52;78.81
69780;BME280;57052;55.602;38.096;2023-12-20T03:58:15;98561.44;;;5.44;79.00
69780;BME280;57052;55.602;38.096;2023-12-20T04:00:41;98558.25;;;5.42;78.93
69780;BME280;57052;55.602;38.096;2023-12-20T04:03:07;98563.63;;;5.37;79.09
69780;BME280;57052;55.602;38.096;2023-12-20T04:05:33;98548.38;;;5.32;79.07
69780;BME280;57052;55.602;38.096;2023-12-20T04:08:01;98567.94;;;5.38;79.04
69780;BME280;57052;55.602;38.096;2023-12-20T04:10:27;98570.59;;;5.43;79.10
69780;BME280;57052;55.602;38.096;2023-12-20T04:12:53;98561.19;;;5.45;79.11
69780;BME280;57052;55.602;38.096;2023-12-20T04:15:20;98573.25;;;5.48;79.17
69780;BME280;57052;55.602;38.096;2023-12-20T04:17:46;98568.13;;;5.46;78.80
69780;BME280;57052;55.602;38.096;2023-12-20T04:20:12;98565.44;;;5.46;78.82
69780;BME280;57052;55.602;38.096;2023-12-20T04:22:38;98564.41;;;5.42;78.98
69780;BME280;57052;55.602;38.096;2023-12-20T04:25:04;98570.03;;;5.46;79.14
69780;BME280;57052;55.602;38.096;2023-12-20T04:27:30;98579.97;;;5.45;79.06
69780;BME280;57052;55.602;38.096;2023-12-20T04:29:56;98563.88;;;5.45;79.13
69780;BME280;57052;55.602;38.096;2023-12-20T04:32:22;98570.81;;;5.46;79.20
69780;BME280;57052;55.602;38.096;2023-12-20T04:34:48;98573.25;;;5.48;79.07
69780;BME280;57052;55.602;38.096;2023-12-20T04:37:13;98568.13;;;5.46;79.09
69780;BME280;57052;55.602;38.096;2023-12-20T04:39:39;98567.09;;;5.42;79.21
69780;BME280;57052;55.602;38.096;2023-12-20T04:42:06;98583.97;;;5.48;79.04
69780;BME280;57052;55.602;38.096;2023-12-20T04:44:32;98572.94;;;5.49;79.38
69780;BME280;57052;55.602;38.096;2023-12-20T04:46:58;98582.88;;;5.49;79.06
69780;BME280;57052;55.602;38.096;2023-12-20T04:49:24;98590.66;;;5.50;78.78
69780;BME280;57052;55.602;38.096;2023-12-20T04:51:50;98581.28;;;5.48;79.16
69780;BME280;57052;55.602;38.096;2023-12-20T04:54:15;98572.50;;;5.37;79.09
69780;BME280;57052;55.602;38.096;2023-12-20T04:56:41;98575.66;;;5.44;79.31
69780;BME280;57052;55.602;38.096;2023-12-20T04:59:07;98572.16;;;5.44;79.33
69780;BME280;57052;55.602;38.096;2023-12-20T05:01:33;98505.34;;;5.03;79.43
69780;BME280;57052;55.602;38.096;2023-12-20T05:03:59;98582.66;;;5.45;78.97
69780;BME280;57052;55.602;38.096;2023-12-20T05:06:24;98586.94;;;5.41;79.55
69780;BME280;57052;55.602;38.096;2023-12-20T05:08:50;98588.28;;;5.39;79.10
69780;BME280;57052;55.602;38.096;2023-12-20T05:11:16;98586.16;;;5.41;79.10
69780;BME280;57052;55.602;38.096;2023-12-20T05:13:42;98585.88;;;5.42;78.97
69780;BME280;57052;55.602;38.096;2023-12-20T05:16:08;98577.03;;;5.37;78.93
69780;BME280;57052;55.602;38.096;2023-12-20T05:18:34;98594.72;;;5.43;78.81
69780;BME280;57052;55.602;38.096;2023-12-20T05:21:00;98598.50;;;5.37;78.88
69780;BME280;57052;55.602;38.096;2023-12-20T05:23:26;98596.63;;;5.37;78.27
69780;BME280;57052;55.602;38.096;2023-12-20T05:25:52;98588.91;;;5.31;78.51
69780;BME280;57052;55.602;38.096;2023-12-20T05:28:17;98600.34;;;5.41;78.89
69780;BME280;57052;55.602;38.096;2023-12-20T05:30:43;98603.31;;;5.40;79.00
69780;BME280;57052;55.602;38.096;2023-12-20T05:33:09;98607.63;;;5.41;78.43
69780;BME280;57052;55.602;38.096;2023-12-20T05:35:34;98614.88;;;5.35;78.54
69780;BME280;57052;55.602;38.096;2023-12-20T05:38:00;98614.09;;;5.30;78.71
69780;BME280;57052;55.602;38.096;2023-12-20T05:40:26;98605.56;;;5.23;78.85
69780;BME280;57052;55.602;38.096;2023-12-20T05:42:51;98614.09;;;5.30;79.21
69780;BME280;57052;55.602;38.096;2023-12-20T05:45:17;98620.53;;;5.29;79.72
69780;BME280;57052;55.602;38.096;2023-12-20T05:47:43;98635.03;;;5.33;79.08
69780;BME280;57052;55.602;38.096;2023-12-20T05:50:08;98632.34;;;5.33;79.49
69780;BME280;57052;55.602;38.096;2023-12-20T05:52:34;98606.09;;;5.19;78.81
69780;BME280;57052;55.602;38.096;2023-12-20T05:55:00;98609.03;;;5.23;79.60
69780;BME280;57052;55.602;38.096;2023-12-20T05:57:33;98613.84;;;5.26;79.93
69780;BME280;57052;55.602;38.096;2023-12-20T05:59:58;98613.31;;;5.24;79.66
69780;BME280;57052;55.602;38.096;2023-12-20T06:02:24;98607.94;;;5.29;79.39
69780;BME280;57052;55.602;38.096;2023-12-20T06:04:50;98588.66;;;5.17;79.68
69780;BME280;57052;55.602;38.096;2023-12-20T06:07:16;98612.47;;;5.34;79.73
69780;BME280;57052;55.602;38.096;2023-12-20T06:09:42;98601.50;;;5.30;79.34
69780;BME280;57052;55.602;38.096;2023-12-20T06:12:08;98600.41;;;5.31;79.58
69780;BME280;57052;55.602;38.096;2023-12-20T06:14:34;98586.28;;;5.15;79.37
69780;BME280;57052;55.602;38.096;2023-12-20T06:17:00;98598.84;;;5.25;79.24
69780;BME280;57052;55.602;38.096;2023-12-20T06:19:29;98609.56;;;5.25;79.23
69780;BME280;57052;55.602;38.096;2023-12-20T06:21:54;98614.41;;;5.23;79.34
69780;BME280;57052;55.602;38.096;2023-12-20T06:24:20;98616.81;;;5.25;79.17
69780;BME280;57052;55.602;38.096;2023-12-20T06:26:47;98620.84;;;5.22;79.00
69780;BME280;57052;55.602;38.096;2023-12-20T06:29:13;98622.16;;;5.25;79.14
69780;BME280;57052;55.602;38.096;2023-12-20T06:31:38;98627.00;;;5.28;79.42
69780;BME280;57052;55.602;38.096;2023-12-20T06:34:04;98620.28;;;5.25;79.07
69780;BME280;57052;55.602;38.096;2023-12-20T06:36:30;98632.59;;;5.31;79.18
69780;BME280;57052;55.602;38.096;2023-12-20T06:38:55;98636.63;;;5.29;78.97
69780;BME280;57052;55.602;38.096;2023-12-20T06:41:21;98633.94;;;5.29;79.10
69780;BME280;57052;55.602;38.096;2023-12-20T06:43:52;98618.94;;;5.28;79.03
69780;BME280;57052;55.602;38.096;2023-12-20T06:46:18;98620.00;;;5.32;78.52
69780;BME280;57052;55.602;38.096;2023-12-20T06:48:44;98609.28;;;5.27;78.64
69780;BME280;57052;55.602;38.096;2023-12-20T06:51:15;98621.06;;;5.36;78.71
69780;BME280;57052;55.602;38.096;2023-12-20T06:53:41;98614.59;;;5.37;79.04
69780;BME280;57052;55.602;38.096;2023-12-20T06:56:07;98609.78;;;5.34;79.01
69780;BME280;57052;55.602;38.096;2023-12-20T06:58:33;98592.38;;;5.26;78.78
69780;BME280;57052;55.602;38.096;2023-12-20T07:00:58;98618.38;;;5.41;78.59
69780;BME280;57052;55.602;38.096;2023-12-20T07:03:24;98623.97;;;5.44;78.48
69780;BME280;57052;55.602;38.096;2023-12-20T07:05:50;98613.53;;;5.38;78.82
69780;BME280;57052;55.602;38.096;2023-12-20T07:08:15;98624.78;;;5.45;78.19
69780;BME280;57052;55.602;38.096;2023-12-20T07:10:41;98626.91;;;5.48;78.16
69780;BME280;57052;55.602;38.096;2023-12-20T07:13:07;98558.16;;;5.03;77.91
69780;BME280;57052;55.602;38.096;2023-12-20T07:15:33;98626.09;;;5.47;77.99
69780;BME280;57052;55.602;38.096;2023-12-20T07:17:59;98636.28;;;5.55;77.95
69780;BME280;57052;55.602;38.096;2023-12-20T07:20:26;98636.50;;;5.59;78.10
69780;BME280;57052;55.602;38.096;2023-12-20T07:22:51;98631.13;;;5.59;77.61
69780;BME280;57052;55.602;38.096;2023-12-20T07:25:17;98619.91;;;5.52;77.59
69780;BME280;57052;55.602;38.096;2023-12-20T07:27:44;98619.34;;;5.55;77.05
69780;BME280;57052;55.602;38.096;2023-12-20T07:30:10;98648.84;;;5.65;77.77
69780;BME280;57052;55.602;38.096;2023-12-20T07:32:36;98639.13;;;5.69;77.01
69780;BME280;57052;55.602;38.096;2023-12-20T07:35:01;98638.88;;;5.70;77.14
69780;BME280;57052;55.602;38.096;2023-12-20T07:37:29;98647.75;;;5.71;77.00
69780;BME280;57052;55.602;38.096;2023-12-20T07:39:55;98640.78;;;5.65;77.19
69780;BME280;57052;55.602;38.096;2023-12-20T07:42:21;98655.47;;;5.77;76.85
69780;BME280;57052;55.602;38.096;2023-12-20T07:44:47;98645.56;;;5.78;76.94
69780;BME280;57052;55.602;38.096;2023-12-20T07:47:13;98656.25;;;5.83;77.05
69780;BME280;57052;55.602;38.096;2023-12-20T07:49:42;98647.94;;;5.85;76.47
69780;BME280;57052;55.602;38.096;2023-12-20T07:52:08;98661.13;;;5.86;76.58
69780;BME280;57052;55.602;38.096;2023-12-20T07:54:34;98643.41;;;5.75;76.50
69780;BME280;57052;55.602;38.096;2023-12-20T07:56:59;98667.00;;;5.88;76.51
69780;BME280;57052;55.602;38.096;2023-12-20T07:59:25;98669.66;;;5.93;76.91
69780;BME280;57052;55.602;38.096;2023-12-20T08:01:51;98672.88;;;5.95;76.76
69780;BME280;57052;55.602;38.096;2023-12-20T08:04:16;98634.88;;;5.68;76.49
69780;BME280;57052;55.602;38.096;2023-12-20T08:06:42;98643.38;;;5.80;76.28
69780;BME280;57052;55.602;38.096;2023-12-20T08:09:08;98680.38;;;5.98;76.41
69780;BME280;57052;55.602;38.096;2023-12-20T08:11:33;98670.72;;;5.92;77.05
69780;BME280;57052;55.602;38.096;2023-12-20T08:13:59;98669.13;;;5.96;76.79
69780;BME280;57052;55.602;38.096;2023-12-20T08:16:25;98670.47;;;5.94;76.55
69780;BME280;57052;55.602;38.096;2023-12-20T08:18:51;98668.03;;;5.97;76.15
69780;BME280;57052;55.602;38.096;2023-12-20T08:21:17;98676.84;;;6.03;76.50
69780;BME280;57052;55.602;38.096;2023-12-20T08:23:46;98664.75;;;6.05;77.02
69780;BME280;57052;55.602;38.096;2023-12-20T08:26:13;98632.34;;;5.81;75.86
69780;BME280;57052;55.602;38.096;2023-12-20T08:28:38;98663.66;;;6.06;76.35
69780;BME280;57052;55.602;38.096;2023-12-20T08:31:04;98660.75;;;6.03;76.69
69780;BME280;57052;55.602;38.096;2023-12-20T08:33:30;98635.03;;;5.87;76.06
69780;BME280;57052;55.602;38.096;2023-12-20T08:35:55;98652.97;;;6.01;76.32
69780;BME280;57052;55.602;38.096;2023-12-20T08:38:21;98657.25;;;6.02;76.26
69780;BME280;57052;55.602;38.096;2023-12-20T08:40:47;98653.22;;;6.00;76.48
69780;BME280;57052;55.602;38.096;2023-12-20T08:43:14;98611.22;;;5.70;75.61
69780;BME280;57052;55.602;38.096;2023-12-20T08:45:39;98651.91;;;5.97;76.07
69780;BME280;57052;55.602;38.096;2023-12-20T08:48:05;98654.03;;;6.00;76.52
69780;BME280;57052;55.602;38.096;2023-12-20T08:50:31;98655.66;;;6.01;76.27
69780;BME280;57052;55.602;38.096;2023-12-20T08:52:57;98657.25;;;6.02;75.63
69780;BME280;57052;55.602;38.096;2023-12-20T08:55:23;98659.94;;;6.02;75.57
69780;BME280;57052;55.602;38.096;2023-12-20T08:57:48;98660.78;;;5.98;75.64
69780;BME280;57052;55.602;38.096;2023-12-20T09:00:16;98647.38;;;5.93;75.93
69780;BME280;57052;55.602;38.096;2023-12-20T09:02:42;98662.09;;;6.00;75.78
69780;BME280;57052;55.602;38.096;2023-12-20T09:05:07;98650.34;;;5.91;75.73
69780;BME280;57052;55.602;38.096;2023-12-20T09:07:34;98656.22;;;5.98;76.06
69780;BME280;57052;55.602;38.096;2023-12-20T09:09:59;98645.53;;;5.88;76.57
69780;BME280;57052;55.602;38.096;2023-12-20T09:12:27;98647.09;;;5.84;75.95
69780;BME280;57052;55.602;38.096;2023-12-20T09:14:53;98661.28;;;6.00;75.96
69780;BME280;57052;55.602;38.096;2023-12-20T09:17:19;98668.00;;;6.02;76.43
69780;BME280;57052;55.602;38.096;2023-12-20T09:19:48;98650.53;;;6.00;76.04
69780;BME280;57052;55.602;38.096;2023-12-20T09:22:14;98660.97;;;6.06;76.35
69780;BME280;57052;55.602;38.096;2023-12-20T09:24:40;98650.22;;;6.06;76.10
69780;BME280;57052;55.602;38.096;2023-12-20T09:27:05;98663.91;;;6.10;76.64
69780;BME280;57052;55.602;38.096;2023-12-20T09:29:31;98653.47;;;6.08;76.12
69780;BME280;57052;55.602;38.096;2023-12-20T09:31:57;98647.78;;;6.10;76.11
69780;BME280;57052;55.602;38.096;2023-12-20T09:34:23;98648.63;;;6.05;75.95
69780;BME280;57052;55.602;38.096;2023-12-20T09:36:49;98643.28;;;6.00;76.39
69780;BME280;57052;55.602;38.096;2023-12-20T09:39:16;98656.69;;;6.05;76.48
69780;BME280;57052;55.602;38.096;2023-12-20T09:41:57;98650.78;;;6.08;76.04
69780;BME280;57052;55.602;38.096;2023-12-20T09:44:25;98655.03;;;6.09;76.03
69780;BME280;57052;55.602;38.096;2023-12-20T09:46:52;98651.56;;;6.09;76.61
69780;BME280;57052;55.602;38.096;2023-12-20T09:49:20;98651.78;;;6.17;76.22
69780;BME280;57052;55.602;38.096;2023-12-20T09:51:47;98649.91;;;6.18;76.72
69780;BME280;57052;55.602;38.096;2023-12-20T09:54:17;98643.72;;;6.17;76.10
69780;BME280;57052;55.602;38.096;2023-12-20T09:56:47;98642.09;;;6.16;76.62
69780;BME280;57052;55.602;38.096;2023-12-20T09:59:13;98646.69;;;6.16;76.52
69780;BME280;57052;55.602;38.096;2023-12-20T10:01:40;98643.78;;;6.07;76.76
69780;BME280;57052;55.602;38.096;2023-12-20T10:04:08;98612.22;;;5.89;76.43
69780;BME280;57052;55.602;38.096;2023-12-20T10:06:41;98632.00;;;6.03;77.04
69780;BME280;57052;55.602;38.096;2023-12-20T10:09:07;98644.59;;;6.08;76.44
69780;BME280;57052;55.602;38.096;2023-12-20T10:11:35;98645.91;;;6.10;76.51
69780;BME280;57052;55.602;38.096;2023-12-20T10:14:00;98639.47;;;6.06;76.75
69780;BME280;57052;55.602;38.096;2023-12-20T10:16:27;98641.13;;;6.02;76.95
69780;BME280;57052;55.602;38.096;2023-12-20T10:18:56;98651.81;;;6.12;76.45
69780;BME280;57052;55.602;38.096;2023-12-20T10:21:22;98643.53;;;6.04;76.56
69780;BME280;57052;55.602;38.096;2023-12-20T10:23:49;98656.88;;;6.14;76.23
69780;BME280;57052;55.602;38.096;2023-12-20T10:26:27;98658.53;;;6.10;76.32
69780;BME280;57052;55.602;38.096;2023-12-20T10:28:54;98647.63;;;5.96;76.19
69780;BME280;57052;55.602;38.096;2023-12-20T10:31:31;98662.59;;;6.07;76.31
69780;BME280;57052;55.602;38.096;2023-12-20T10:33:58;98665.81;;;6.04;76.63
69780;BME280;57052;55.602;38.096;2023-12-20T10:36:29;98662.59;;;6.07;76.38
69780;BME280;57052;55.602;38.096;2023-12-20T10:38:56;98664.75;;;6.05;76.75
69780;BME280;57052;55.602;38.096;2023-12-20T10:41:29;98655.06;;;6.04;75.88
69780;BME280;57052;55.602;38.096;2023-12-20T10:44:04;98660.44;;;6.04;76.28
69780;BME280;57052;55.602;38.096;2023-12-20T10:46:33;98648.66;;;6.00;75.75
69780;BME280;57052;55.602;38.096;2023-12-20T10:49:04;98655.34;;;6.08;76.36
69780;BME280;57052;55.602;38.096;2023-12-20T10:51:31;98640.31;;;6.02;75.89
69780;BME280;57052;55.602;38.096;2023-12-20T10:53:57;98656.16;;;6.08;76.20
69780;BME280;57052;55.602;38.096;2023-12-20T10:56:23;98663.66;;;6.06;76.30
69780;BME280;57052;55.602;38.096;2023-12-20T10:58:50;98661.56;;;6.03;76.05
69780;BME280;57052;55.602;38.096;2023-12-20T11:01:17;98661.28;;;6.00;76.67
69780;BME280;57052;55.602;38.096;2023-12-20T11:03:53;98663.19;;;5.94;76.99
69780;BME280;57052;55.602;38.096;2023-12-20T11:09:13;98677.97;;;5.92;76.36
69780;BME280;57052;55.602;38.096;2023-12-20T11:11:43;98680.13;;;5.95;76.38
69780;BME280;57052;55.602;38.096;2023-12-20T11:14:19;98673.94;;;5.94;76.87
69780;BME280;57052;55.602;38.096;2023-12-20T11:16:46;98668.03;;;5.92;76.86
69780;BME280;57052;55.602;38.096;2023-12-20T11:19:11;98655.44;;;5.93;76.38
69780;BME280;57052;55.602;38.096;2023-12-20T11:21:40;98668.50;;;6.04;76.27
69780;BME280;57052;55.602;38.096;2023-12-20T11:24:05;98665.31;;;6.02;76.77
69780;BME280;57052;55.602;38.096;2023-12-20T11:26:31;98654.06;;;5.95;76.63
69780;BME280;57052;55.602;38.096;2023-12-20T11:29:30;98670.38;;;6.04;76.53
69780;BME280;57052;55.602;38.096;2023-12-20T11:31:56;98674.38;;;6.11;75.83
69780;BME280;57052;55.602;38.096;2023-12-20T11:34:27;98677.06;;;6.11;75.81
69780;BME280;57052;55.602;38.096;2023-12-20T11:37:00;98669.84;;;6.07;75.64
69780;BME280;57052;55.602;38.096;2023-12-20T11:39:26;98681.88;;;6.14;76.14
69780;BME280;57052;55.602;38.096;2023-12-20T11:41:57;98687.53;;;6.13;76.53
69780;BME280;57052;55.602;38.096;2023-12-20T11:44:25;98685.41;;;6.10;75.96
69780;BME280;57052;55.602;38.096;2023-12-20T11:46:51;98669.59;;;6.03;75.96
69780;BME280;57052;55.602;38.096;2023-12-20T11:49:17;98681.88;;;6.14;76.33
69780;BME280;57052;55.602;38.096;2023-12-20T11:51:44;98683.75;;;6.14;76.41
69780;BME280;57052;55.602;38.096;2023-12-20T11:54:09;98676.53;;;6.09;76.08
69780;BME280;57052;55.602;38.096;2023-12-20T11:56:36;98676.00;;;6.07;75.84
69780;BME280;57052;55.602;38.096;2023-12-20T11:59:02;98679.25;;;6.04;76.23
69780;BME280;57052;55.602;38.096;2023-12-20T12:01:28;98674.16;;;6.03;75.95
69780;BME280;57052;55.602;38.096;2023-12-20T12:04:04;98657.56;;;5.96;76.55
69780;BME280;57052;55.602;38.096;2023-12-20T12:06:30;98669.59;;;6.03;76.05
69780;BME280;57052;55.602;38.096;2023-12-20T12:08:56;98670.38;;;6.04;76.45
69780;BME280;57052;55.602;38.096;2023-12-20T12:11:22;98651.09;;;5.97;76.66
69780;BME280;57052;55.602;38.096;2023-12-20T12:13:48;98664.78;;;6.00;76.72
69780;BME280;57052;55.602;38.096;2023-12-20T12:16:18;98665.84;;;5.99;76.58
69780;BME280;57052;55.602;38.096;2023-12-20T12:18:58;98666.97;;;5.93;76.22
69780;BME280;57052;55.602;38.096;2023-12-20T12:21:25;98661.88;;;5.92;76.75
69780;BME280;57052;55.602;38.096;2023-12-20T12:23:50;98667.22;;;5.97;76.74
69780;BME280;57052;55.602;38.096;2023-12-20T12:26:16;98677.19;;;5.96;76.46
69780;BME280;57052;55.602;38.096;2023-12-20T12:28:42;98680.13;;;5.95;76.36
69780;BME280;57052;55.602;38.096;2023-12-20T12:31:12;98692.75;;;5.94;76.74
69780;BME280;57052;55.602;38.096;2023-12-20T12:33:39;98693.03;;;5.93;76.52
69780;BME280;57052;55.602;38.096;2023-12-20T12:36:07;98699.75;;;5.90;76.64
69780;BME280;57052;55.602;38.096;2023-12-20T12:38:33;98706.44;;;5.93;76.96
69780;BME280;57052;55.602;38.096;2023-12-20T12:41:00;98695.22;;;5.86;76.28
69780;BME280;57052;55.602;38.096;2023-12-20T12:43:26;98688.75;;;5.81;76.80
69780;BME280;57052;55.602;38.096;2023-12-20T12:45:53;98700.28;;;5.87;76.83
69780;BME280;57052;55.602;38.096;2023-12-20T12:48:19;98710.50;;;5.85;76.88
69780;BME280;57052;55.602;38.096;2023-12-20T12:50:45;98709.44;;;5.86;76.84
69780;BME280;57052;55.602;38.096;2023-12-20T12:53:11;98696.56;;;5.78;76.08
69780;BME280;57052;55.602;38.096;2023-12-20T12:55:37;98713.47;;;5.83;76.98
69780;BME280;57052;55.602;38.096;2023-12-20T12:58:03;98723.38;;;5.83;77.06
69780;BME280;57052;55.602;38.096;2023-12-20T13:00:29;98733.03;;;5.84;76.72